Detall de PIREP

Printer-friendly versionPDF version

[2012/02/22 08:33:00]
Flight IATA:CT2103
Pilot Number:041
Company ICAO:CAT
Aircraft Type:F70/E
PAX:49
Aircraft Registration:DA
Departing Airport: LEBZ
Destination Airport: LEVC
Alternate Airport:LEPA
Online: VATSIM
Route:CCS G7 CJN A33 CENTA
Flight Level:F240
No Slew and time accel
No pause
Crash detect
Detect pilot in Cockpit between each 30 and 45 minutes
08:33 Zero fuel Weight: 68098 Lbs, Fuel Weight: 10540 Lbs
08:33 VATSIM:LEBZ 220800Z 00000KT CAVOK M01/M03 Q1028
08:33 VATSIM:LEVC 220800Z 28004KT CAVOK 04/M00 Q1028 NOSIG
08:33 VOICE CATALONIAN
08:48 Parking Brakes off
08:53 Take-off
08:53 Take off Weight: 78294 Lbs
08:53 Wind: 035º @ 002 Knots Heading: 305º
08:53 POS N38º 53´ 29´´ W006º 49´ 19´´
08:53 Gear Up: 152 Knots
08:53 Flaps:2 at 152 Knots
08:53 Flaps:1 at 156 Knots
08:53 Flaps:0 at 153 Knots
09:04 TOC
09:04 Fuel Weight: 8713 Lb
09:08 Wind:019º@024 Knots Heading: 070º Ground Speed: 370 Knots Altitude 24379 ft
09:23 Wind:009º@043 Knots Heading: 067º Ground Speed: 359 Knots Altitude 24484 ft
09:38 Wind:013º@041 Knots Heading: 111º Ground Speed: 387 Knots Altitude 24468 ft
09:46 TOD
09:46 Fuel Weight: 5379 Lb
09:53 Wind:032º@002 Knots Heading: 132º Ground Speed: 273 Knots Altitude 9156 ft
09:59 Flaps:1 at 232 Knots
10:00 Flaps:2 at 227 Knots
10:00 Flaps:3 at 173 Knots
10:01 Gear Down: 160 Knots
10:01 Flaps:4 at 152 Knots
10:05 TouchDown:Rate -193 ft/min Speed: 111 Knots
10:05 VATSIM:LEVC 220930Z VRB01KT CAVOK 10/M03 Q1028 NOSIG
10:05 Land
10:05 Wind:273º@002 Knots
10:05 Heading: 294º
10:05 Flight Duration: 01:12
10:05 Landing Weight: 72681 Lbs
10:05 POS N39º 29´ 29´´ W000º 29´ 15´´
10:08 Parking brakes on
10:08 Block to Block Duration: 01:20
10:08 Final Fuel: 4479 Lbls
10:08 Spent Fuel: 6060 Lbls
10:08 Flight Length: 388 NM
10:08 TOD Land Length: 76 NM

Exportar CSV

Powered by Drupal - Modified by Danger4k